Time;durP1;ratioP1;P1;durP2;ratioP2;P2;SDS_P1;SDS_P2;PMS_P1;PMS_P2;Temp;Humidity;BMP_temperature;BMP_pressure;BME280_temperature;BME280_humidity;BME280_pressure;Samples;Min_cycle;Max_cycle;Signal;HPM_P1;HPM_P2
2023/12/19 00:01:43;;;;;;;0.20;0.20;;;;;;;;;;6249273;28;20021;-76
2023/12/19 00:04:43;;;;;;;0.20;0.20;;;;;;;;;;6257706;28;20140;-76
2023/12/19 00:07:45;;;;;;;0.27;0.27;;;;;;;;;;6279223;28;20490;-76
2023/12/19 00:10:46;;;;;;;0.20;0.20;;;;;;;;;;6269859;28;20040;-76
2023/12/19 00:13:48;;;;;;;0.20;0.20;;;;;;;;;;6265657;28;20029;-76
2023/12/19 00:16:48;;;;;;;0.20;0.20;;;;;;;;;;6281437;28;20021;-76
2023/12/19 00:19:48;;;;;;;0.20;0.20;;;;;;;;;;6255012;28;20112;-76
2023/12/19 00:22:48;;;;;;;0.30;0.30;;;;;;;;;;6265130;28;20403;-76
2023/12/19 00:25:48;;;;;;;0.20;0.20;;;;;;;;;;6260524;28;20090;-76
2023/12/19 00:28:49;;;;;;;0.20;0.20;;;;;;;;;;6267027;28;20210;-76
2023/12/19 00:31:51;;;;;;;0.20;0.20;;;;;;;;;;6250804;28;20022;-76
2023/12/19 00:34:51;;;;;;;0.20;0.20;;;;;;;;;;6267104;28;20028;-75
2023/12/19 00:37:51;;;;;;;0.20;0.20;;;;;;;;;;6258088;28;20502;-75
2023/12/19 00:40:52;;;;;;;0.20;0.20;;;;;;;;;;6260524;28;20025;-75
2023/12/19 00:43:52;;;;;;;0.20;0.20;;;;;;;;;;6264573;28;20071;-75
2023/12/19 00:46:52;;;;;;;0.20;0.20;;;;;;;;;;6290964;28;20024;-75
2023/12/19 00:49:52;;;;;;;0.20;0.20;;;;;;;;;;6272805;28;20468;-76
2023/12/19 00:52:53;;;;;;;0.20;0.20;;;;;;;;;;6265646;28;20027;-77
2023/12/19 00:55:53;;;;;;;0.20;0.20;;;;;;;;;;6257710;28;20380;-77
2023/12/19 00:58:53;;;;;;;0.20;0.20;;;;;;;;;;6264594;28;20029;-78
2023/12/19 01:01:53;;;;;;;0.20;0.20;;;;;;;;;;6265075;28;20033;-78
2023/12/19 01:04:56;;;;;;;0.20;0.20;;;;;;;;;;6249865;28;20045;-77
2023/12/19 01:07:56;;;;;;;0.20;0.20;;;;;;;;;;6268646;28;20028;-77
2023/12/19 01:10:56;;;;;;;0.20;0.20;;;;;;;;;;6267562;28;20032;-77
2023/12/19 01:13:56;;;;;;;0.28;0.28;;;;;;;;;;6273866;28;20413;-77
2023/12/19 01:16:57;;;;;;;0.20;0.20;;;;;;;;;;6248106;28;20020;-77
2023/12/19 01:19:57;;;;;;;0.20;0.20;;;;;;;;;;6268255;28;20431;-77
2023/12/19 01:22:57;;;;;;;0.20;0.20;;;;;;;;;;6246737;28;20593;-78
2023/12/19 01:25:58;;;;;;;0.20;0.20;;;;;;;;;;6242033;28;20029;-78
2023/12/19 01:28:58;;;;;;;0.20;0.20;;;;;;;;;;6257528;28;20460;-78
2023/12/19 01:31:58;;;;;;;0.20;0.20;;;;;;;;;;6278630;28;20469;-76
2023/12/19 01:34:58;;;;;;;0.20;0.20;;;;;;;;;;6296124;28;20024;-76
2023/12/19 01:37:58;;;;;;;0.20;0.20;;;;;;;;;;6275115;28;20051;-76
2023/12/19 01:40:59;;;;;;;0.20;0.20;;;;;;;;;;6264559;28;20032;-76
2023/12/19 01:43:59;;;;;;;0.20;0.20;;;;;;;;;;6259878;28;20444;-76
2023/12/19 01:46:59;;;;;;;0.20;0.20;;;;;;;;;;6277634;28;20043;-76
2023/12/19 01:50:01;;;;;;;0.20;0.20;;;;;;;;;;6270684;28;20029;-76
2023/12/19 01:53:01;;;;;;;0.20;0.20;;;;;;;;;;6264214;28;20024;-78
2023/12/19 01:56:02;;;;;;;0.10;0.10;;;;;;;;;;6264152;28;20013;-78
2023/12/19 01:59:03;;;;;;;0.20;0.20;;;;;;;;;;6268817;28;20025;-78
2023/12/19 02:02:03;;;;;;;0.10;0.10;;;;;;;;;;6266857;28;20021;-77
2023/12/19 02:08:14;;;;;;;0.20;0.20;;;;;;;;;;6412847;22;20057;-88
2023/12/19 02:11:14;;;;;;;0.10;0.10;;;;;;;;;;6245058;28;20109;-87
2023/12/19 02:14:14;;;;;;;0.20;0.20;;;;;;;;;;6244032;28;20017;-90
2023/12/19 02:17:16;;;;;;;0.20;0.20;;;;;;;;;;6247935;28;20017;-91
2023/12/19 02:20:19;;;;;;;0.20;0.20;;;;;;;;;;6249130;28;20108;-91
2023/12/19 02:23:19;;;;;;;0.20;0.20;;;;;;;;;;6244704;28;20076;-90
2023/12/19 02:26:19;;;;;;;0.20;0.20;;;;;;;;;;6244159;28;20026;-90
2023/12/19 02:29:23;;;;;;;0.20;0.20;;;;;;;;;;6244306;28;20079;-90
2023/12/19 02:32:23;;;;;;;0.20;0.20;;;;;;;;;;6237112;28;20029;-88
2023/12/19 02:35:23;;;;;;;0.10;0.10;;;;;;;;;;6243096;28;20049;-89
2023/12/19 02:38:24;;;;;;;0.10;0.10;;;;;;;;;;6243823;28;20013;-89
2023/12/19 02:41:24;;;;;;;0.20;0.20;;;;;;;;;;6258866;28;20013;-88
2023/12/19 02:44:24;;;;;;;0.20;0.20;;;;;;;;;;6244384;28;20056;-88
2023/12/19 02:47:24;;;;;;;0.20;0.20;;;;;;;;;;6245109;28;20028;-88
2023/12/19 02:50:25;;;;;;;0.10;0.10;;;;;;;;;;6252958;28;20017;-88
2023/12/19 02:53:27;;;;;;;0.20;0.20;;;;;;;;;;6245416;28;20017;-87
2023/12/19 02:56:32;;;;;;;0.20;0.20;;;;;;;;;;6244964;28;20087;-88
2023/12/19 02:59:32;;;;;;;0.20;0.20;;;;;;;;;;6249451;28;20391;-90
2023/12/19 03:02:32;;;;;;;0.20;0.20;;;;;;;;;;6251813;28;20040;-89
2023/12/19 03:05:33;;;;;;;0.20;0.20;;;;;;;;;;6244932;28;20056;-89
2023/12/19 03:08:36;;;;;;;0.20;0.20;;;;;;;;;;6242333;28;20534;-89
2023/12/19 03:11:39;;;;;;;0.20;0.20;;;;;;;;;;6242200;28;20395;-88
2023/12/19 03:14:39;;;;;;;0.20;0.20;;;;;;;;;;6243591;28;20029;-89
2023/12/19 03:17:40;;;;;;;0.10;0.10;;;;;;;;;;6244189;28;20511;-89
2023/12/19 03:20:40;;;;;;;0.20;0.20;;;;;;;;;;6244328;28;20088;-89
2023/12/19 03:23:40;;;;;;;0.20;0.20;;;;;;;;;;6244613;28;20028;-89
2023/12/19 03:26:41;;;;;;;0.20;0.20;;;;;;;;;;6244455;28;20056;-89
2023/12/19 03:29:42;;;;;;;0.10;0.10;;;;;;;;;;6243260;28;20376;-89
2023/12/19 03:32:42;;;;;;;0.20;0.20;;;;;;;;;;6243182;28;20017;-90
2023/12/19 03:35:43;;;;;;;0.20;0.20;;;;;;;;;;6241936;28;20112;-90
2023/12/19 03:38:43;;;;;;;0.10;0.10;;;;;;;;;;6244448;28;20028;-90
2023/12/19 03:41:44;;;;;;;0.20;0.20;;;;;;;;;;6244552;28;20484;-90
2023/12/19 03:44:44;;;;;;;0.20;0.20;;;;;;;;;;6245693;28;20014;-90
2023/12/19 03:47:44;;;;;;;0.20;0.20;;;;;;;;;;6262073;28;20495;-90
2023/12/19 03:50:45;;;;;;;0.10;0.10;;;;;;;;;;6246397;28;20468;-90
2023/12/19 03:53:46;;;;;;;0.20;0.20;;;;;;;;;;6247219;28;20017;-90
2023/12/19 03:56:46;;;;;;;0.10;0.10;;;;;;;;;;6246045;28;20148;-90
2023/12/19 03:59:46;;;;;;;0.20;0.20;;;;;;;;;;6245164;28;20538;-90
2023/12/19 04:02:46;;;;;;;0.20;0.20;;;;;;;;;;6244908;28;20021;-90
2023/12/19 04:05:47;;;;;;;0.20;0.20;;;;;;;;;;6248208;28;20030;-90
2023/12/19 04:08:47;;;;;;;0.20;0.20;;;;;;;;;;6242046;28;20587;-90
2023/12/19 04:11:48;;;;;;;0.20;0.20;;;;;;;;;;6245983;28;20037;-90
2023/12/19 04:14:48;;;;;;;0.20;0.20;;;;;;;;;;6240386;28;20026;-90
2023/12/19 04:17:48;;;;;;;0.20;0.20;;;;;;;;;;6246892;28;20049;-90
2023/12/19 04:20:48;;;;;;;0.20;0.20;;;;;;;;;;6270010;28;20052;-89
2023/12/19 04:23:48;;;;;;;0.20;0.20;;;;;;;;;;6270706;28;20013;-90
2023/12/19 04:26:49;;;;;;;0.20;0.20;;;;;;;;;;6250246;28;20025;-90
2023/12/19 04:29:50;;;;;;;0.20;0.20;;;;;;;;;;6243063;28;20495;-91
2023/12/19 04:32:52;;;;;;;;;;;;;;;;;;6243912;28;20057;-90
2023/12/19 04:35:52;;;;;;;0.20;0.20;;;;;;;;;;6242028;28;19912;-90
2023/12/19 04:38:52;;;;;;;0.10;0.10;;;;;;;;;;6242218;28;20025;-90
2023/12/19 04:41:52;;;;;;;0.20;0.20;;;;;;;;;;6242962;28;20040;-90
2023/12/19 04:44:53;;;;;;;0.20;0.20;;;;;;;;;;6254651;28;20040;-90
2023/12/19 04:47:53;;;;;;;0.10;0.10;;;;;;;;;;6241924;28;20032;-90
2023/12/19 04:50:56;;;;;;;0.20;0.20;;;;;;;;;;6242622;28;20033;-90
2023/12/19 04:53:57;;;;;;;0.20;0.20;;;;;;;;;;6242969;28;20024;-90
2023/12/19 04:56:57;;;;;;;0.20;0.20;;;;;;;;;;6243946;28;20492;-91
2023/12/19 04:59:57;;;;;;;0.10;0.10;;;;;;;;;;6243012;28;20027;-91
2023/12/19 05:02:57;;;;;;;0.20;0.20;;;;;;;;;;6240675;28;20053;-89
2023/12/19 05:05:58;;;;;;;0.20;0.20;;;;;;;;;;6233370;28;20079;-90
2023/12/19 05:08:58;;;;;;;0.20;0.20;;;;;;;;;;6262292;28;20049;-90
2023/12/19 05:11:58;;;;;;;0.20;0.20;;;;;;;;;;6247406;28;20112;-90
2023/12/19 05:14:58;;;;;;;0.20;0.20;;;;;;;;;;6261438;28;20113;-90
2023/12/19 05:17:58;;;;;;;0.20;0.20;;;;;;;;;;6260260;28;20052;-90
2023/12/19 05:20:59;;;;;;;0.20;0.20;;;;;;;;;;6247382;28;20033;-90
2023/12/19 05:23:59;;;;;;;0.20;0.20;;;;;;;;;;6247784;28;20053;-90
2023/12/19 05:26:59;;;;;;;0.20;0.20;;;;;;;;;;6245584;28;20468;-90
2023/12/19 05:29:59;;;;;;;0.20;0.20;;;;;;;;;;6246453;28;20029;-90
2023/12/19 05:33:00;;;;;;;0.20;0.20;;;;;;;;;;6245039;28;20033;-90
2023/12/19 05:36:00;;;;;;;0.20;0.20;;;;;;;;;;6262251;28;20025;-90
2023/12/19 05:39:02;;;;;;;0.13;0.13;;;;;;;;;;6246007;28;20021;-91
2023/12/19 05:42:03;;;;;;;0.17;0.17;;;;;;;;;;6246198;28;20035;-90
2023/12/19 05:45:03;;;;;;;0.20;0.20;;;;;;;;;;6245927;28;20410;-89
2023/12/19 05:48:04;;;;;;;0.20;0.20;;;;;;;;;;6245777;28;20124;-89
2023/12/19 05:51:04;;;;;;;0.20;0.20;;;;;;;;;;6245568;28;20026;-89
2023/12/19 05:54:08;;;;;;;0.10;0.10;;;;;;;;;;6244437;28;20026;-89
2023/12/19 05:57:08;;;;;;;0.20;0.20;;;;;;;;;;6245916;28;20017;-89
2023/12/19 06:00:08;;;;;;;0.20;0.20;;;;;;;;;;6244963;28;20048;-90
2023/12/19 06:03:09;;;;;;;0.20;0.20;;;;;;;;;;6245600;28;20030;-89
2023/12/19 06:06:12;;;;;;;0.20;0.20;;;;;;;;;;6244123;28;20030;-89
2023/12/19 06:09:13;;;;;;;0.13;0.13;;;;;;;;;;6239716;28;20522;-89
2023/12/19 06:12:13;;;;;;;0.20;0.20;;;;;;;;;;6245418;28;20025;-88
2023/12/19 06:15:13;;;;;;;0.20;0.20;;;;;;;;;;6243131;28;20032;-90
2023/12/19 06:18:15;;;;;;;0.20;0.20;;;;;;;;;;6246993;28;20048;-90
2023/12/19 06:21:16;;;;;;;0.20;0.20;;;;;;;;;;6245474;28;20040;-89
2023/12/19 06:24:16;;;;;;;0.20;0.20;;;;;;;;;;6243329;28;20029;-91
2023/12/19 06:27:16;;;;;;;0.10;0.10;;;;;;;;;;6238347;28;20040;-90
2023/12/19 06:30:17;;;;;;;0.20;0.20;;;;;;;;;;6242828;28;20059;-89
2023/12/19 06:33:17;;;;;;;0.20;0.20;;;;;;;;;;6259880;28;20021;-90
2023/12/19 06:36:31;;;;;;;0.17;0.17;;;;;;;;;;6244147;28;20025;-89
2023/12/19 06:39:36;;;;;;;0.20;0.20;;;;;;;;;;6244466;28;20242;-90
2023/12/19 06:42:36;;;;;;;0.20;0.20;;;;;;;;;;6244764;28;20025;-90
2023/12/19 06:45:37;;;;;;;0.20;0.20;;;;;;;;;;6230302;28;20304;-90
2023/12/19 06:48:37;;;;;;;0.10;0.10;;;;;;;;;;6232064;28;20028;-89
2023/12/19 06:51:37;;;;;;;0.10;0.10;;;;;;;;;;6234600;28;20045;-89
2023/12/19 06:54:38;;;;;;;0.17;0.17;;;;;;;;;;6243550;28;20048;-89
2023/12/19 06:57:38;;;;;;;0.20;0.20;;;;;;;;;;6235955;28;20010;-91
2023/12/19 07:00:39;;;;;;;0.20;0.20;;;;;;;;;;6238290;28;20067;-90
2023/12/19 07:03:40;;;;;;;0.20;0.20;;;;;;;;;;6245753;28;20067;-91
2023/12/19 07:06:40;;;;;;;0.20;0.20;;;;;;;;;;6241220;28;20116;-91
2023/12/19 07:09:41;;;;;;;0.20;0.20;;;;;;;;;;6245034;28;20077;-89
2023/12/19 07:12:41;;;;;;;0.10;0.10;;;;;;;;;;6244035;28;20060;-90
2023/12/19 07:15:42;;;;;;;0.20;0.20;;;;;;;;;;6235442;28;20030;-89
2023/12/19 07:18:43;;;;;;;0.20;0.20;;;;;;;;;;6243982;28;20105;-90
2023/12/19 07:21:44;;;;;;;0.20;0.20;;;;;;;;;;6243433;28;20052;-90
2023/12/19 07:24:44;;;;;;;0.20;0.20;;;;;;;;;;6242483;28;20029;-90
2023/12/19 07:27:45;;;;;;;0.20;0.20;;;;;;;;;;6242369;28;20033;-90
2023/12/19 07:30:45;;;;;;;0.20;0.20;;;;;;;;;;6242768;28;20116;-90
2023/12/19 07:33:45;;;;;;;0.20;0.20;;;;;;;;;;6242809;28;20029;-90
2023/12/19 07:36:46;;;;;;;0.13;0.13;;;;;;;;;;6240025;28;20109;-90
2023/12/19 07:39:47;;;;;;;0.10;0.10;;;;;;;;;;6235298;28;20032;-90
2023/12/19 07:42:47;;;;;;;0.10;0.10;;;;;;;;;;6243959;28;20021;-90
2023/12/19 07:45:49;;;;;;;0.20;0.20;;;;;;;;;;6258920;28;20056;-90
2023/12/19 07:48:49;;;;;;;0.10;0.10;;;;;;;;;;6237831;28;20032;-90
2023/12/19 07:51:49;;;;;;;0.10;0.10;;;;;;;;;;6233538;28;20038;-90
2023/12/19 07:54:49;;;;;;;0.20;0.20;;;;;;;;;;6232946;28;20057;-90
2023/12/19 07:57:50;;;;;;;0.20;0.20;;;;;;;;;;6233742;28;20112;-90
2023/12/19 08:00:50;;;;;;;0.10;0.10;;;;;;;;;;6243634;28;20024;-90
2023/12/19 08:03:50;;;;;;;0.10;0.10;;;;;;;;;;6242443;28;20025;-88
2023/12/19 08:06:51;;;;;;;0.10;0.10;;;;;;;;;;6242402;28;20589;-88
2023/12/19 08:09:51;;;;;;;0.10;0.10;;;;;;;;;;6241987;28;20128;-89
2023/12/19 08:12:51;;;;;;;0.10;0.10;;;;;;;;;;6242301;28;20412;-91
2023/12/19 08:15:52;;;;;;;0.20;0.20;;;;;;;;;;6256949;28;20082;-90
2023/12/19 08:18:52;;;;;;;0.20;0.20;;;;;;;;;;6243320;28;20022;-90
2023/12/19 08:21:53;;;;;;;0.20;0.20;;;;;;;;;;6256560;28;20350;-90
2023/12/19 08:24:54;;;;;;;0.10;0.10;;;;;;;;;;6242775;28;20030;-92
2023/12/19 08:27:54;;;;;;;0.20;0.20;;;;;;;;;;6246794;28;20017;-90
2023/12/19 08:30:54;;;;;;;0.20;0.20;;;;;;;;;;6238729;28;20468;-90
2023/12/19 08:33:54;;;;;;;0.10;0.10;;;;;;;;;;6243109;28;20109;-90
2023/12/19 08:36:54;;;;;;;0.13;0.13;;;;;;;;;;6242639;28;20124;-89
2023/12/19 08:39:57;;;;;;;0.10;0.10;;;;;;;;;;6241562;28;20108;-90
2023/12/19 08:42:57;;;;;;;0.20;0.20;;;;;;;;;;6242285;28;20396;-90
2023/12/19 08:45:57;;;;;;;0.10;0.10;;;;;;;;;;6241648;28;20030;-90
2023/12/19 08:48:58;;;;;;;0.20;0.20;;;;;;;;;;6242141;28;20022;-90
2023/12/19 08:51:58;;;;;;;0.20;0.20;;;;;;;;;;6238406;28;20028;-91
2023/12/19 08:55:00;;;;;;;0.20;0.20;;;;;;;;;;6237136;28;20452;-91
2023/12/19 08:58:00;;;;;;;0.10;0.10;;;;;;;;;;6242106;28;20053;-91
2023/12/19 09:01:01;;;;;;;0.10;0.10;;;;;;;;;;6241542;28;20067;-91
2023/12/19 09:04:01;;;;;;;0.10;0.10;;;;;;;;;;6233191;28;20385;-90
2023/12/19 09:07:01;;;;;;;0.10;0.10;;;;;;;;;;6239712;28;20029;-90
2023/12/19 09:10:02;;;;;;;0.10;0.10;;;;;;;;;;6234169;28;20075;-90
2023/12/19 09:13:02;;;;;;;0.10;0.10;;;;;;;;;;6240726;28;20123;-88
2023/12/19 09:16:04;;;;;;;0.10;0.10;;;;;;;;;;6241668;28;20021;-88
2023/12/19 09:19:04;;;;;;;0.10;0.10;;;;;;;;;;6242078;28;20037;-88
2023/12/19 09:22:04;;;;;;;0.10;0.10;;;;;;;;;;6240517;28;20774;-88
2023/12/19 09:25:13;;;;;;;0.10;0.10;;;;;;;;;;6240350;28;20037;-90
2023/12/19 09:28:14;;;;;;;0.15;0.15;;;;;;;;;;6240483;28;20534;-90
2023/12/19 09:31:14;;;;;;;0.20;0.20;;;;;;;;;;6242315;28;20029;-90
2023/12/19 09:34:14;;;;;;;0.10;0.10;;;;;;;;;;6244433;28;20023;-90
2023/12/19 09:37:14;;;;;;;0.10;0.10;;;;;;;;;;6239192;28;20033;-90
2023/12/19 09:40:19;;;;;;;0.10;0.10;;;;;;;;;;6241785;28;20017;-90
2023/12/19 09:43:19;;;;;;;0.10;0.10;;;;;;;;;;6242218;28;20033;-90
2023/12/19 09:46:20;;;;;;;0.10;0.10;;;;;;;;;;6242139;28;20079;-90
2023/12/19 09:49:22;;;;;;;0.10;0.10;;;;;;;;;;6242625;28;20423;-90
2023/12/19 09:52:25;;;;;;;0.10;0.10;;;;;;;;;;6247222;28;20768;-90
2023/12/19 09:55:26;;;;;;;0.10;0.10;;;;;;;;;;6246461;28;20107;-90
2023/12/19 09:58:28;;;;;;;0.10;0.10;;;;;;;;;;6246556;28;20455;-90
2023/12/19 10:01:28;;;;;;;0.10;0.10;;;;;;;;;;6237983;28;20021;-90
2023/12/19 10:04:28;;;;;;;0.10;0.10;;;;;;;;;;6246607;28;20021;-90
2023/12/19 10:07:29;;;;;;;0.10;0.10;;;;;;;;;;6246324;28;20024;-90
2023/12/19 10:10:48;;;;;;;0.10;0.10;;;;;;;;;;6246083;28;20041;-90
2023/12/19 10:13:48;;;;;;;0.10;0.10;;;;;;;;;;6232345;28;20072;-89
2023/12/19 10:16:48;;;;;;;0.10;0.10;;;;;;;;;;6233812;28;20026;-89
2023/12/19 10:19:49;;;;;;;0.10;0.10;;;;;;;;;;6244607;28;20043;-90
2023/12/19 10:22:49;;;;;;;0.10;0.10;;;;;;;;;;6246161;28;20029;-89
2023/12/19 10:25:53;;;;;;;0.10;0.10;;;;;;;;;;6244143;28;20029;-89
2023/12/19 10:28:57;;;;;;;0.15;0.15;;;;;;;;;;6244006;28;20025;-89
2023/12/19 10:32:05;;;;;;;0.10;0.10;;;;;;;;;;6249640;28;20024;-89
2023/12/19 10:35:06;;;;;;;0.10;0.10;;;;;;;;;;6245192;28;20482;-88
2023/12/19 10:38:06;;;;;;;0.10;0.10;;;;;;;;;;6243756;28;20025;-88
2023/12/19 10:41:07;;;;;;;0.10;0.10;;;;;;;;;;6245274;28;20713;-88
2023/12/19 10:44:08;;;;;;;0.10;0.10;;;;;;;;;;6244342;28;20021;-90
2023/12/19 10:47:10;;;;;;;0.10;0.10;;;;;;;;;;6244367;28;20026;-90
2023/12/19 10:50:11;;;;;;;0.10;0.10;;;;;;;;;;6245112;28;20021;-90
2023/12/19 10:53:11;;;;;;;0.10;0.10;;;;;;;;;;6249851;28;20013;-90
2023/12/19 10:56:12;;;;;;;0.10;0.10;;;;;;;;;;6252616;28;20029;-90
2023/12/19 10:59:16;;;;;;;0.10;0.10;;;;;;;;;;6244943;28;20111;-89
2023/12/19 11:02:27;;;;;;;0.10;0.10;;;;;;;;;;6241968;28;20116;-90
2023/12/19 11:05:33;;;;;;;0.10;0.10;;;;;;;;;;6244040;28;20017;-89
2023/12/19 11:08:34;;;;;;;0.10;0.10;;;;;;;;;;6243185;28;20084;-90
2023/12/19 11:11:38;;;;;;;0.10;0.10;;;;;;;;;;6253158;28;20013;-89
2023/12/19 11:14:39;;;;;;;0.10;0.10;;;;;;;;;;6249085;28;20358;-88
2023/12/19 11:17:50;;;;;;;0.10;0.10;;;;;;;;;;6244403;28;20025;-89
2023/12/19 11:21:00;;;;;;;0.10;0.10;;;;;;;;;;6244115;28;20499;-90
2023/12/19 11:24:07;;;;;;;0.10;0.10;;;;;;;;;;6244356;28;20076;-89
2023/12/19 11:27:13;;;;;;;0.10;0.10;;;;;;;;;;6244524;28;20025;-89
2023/12/19 11:30:32;;;;;;;0.10;0.10;;;;;;;;;;6251318;28;20033;-89
2023/12/19 11:33:37;;;;;;;0.10;0.10;;;;;;;;;;6247712;28;20479;-90
2023/12/19 11:36:38;;;;;;;0.10;0.10;;;;;;;;;;6243784;28;20105;-91
2023/12/19 11:39:41;;;;;;;0.10;0.10;;;;;;;;;;6241189;28;20021;-90
2023/12/19 11:42:41;;;;;;;0.15;0.15;;;;;;;;;;6238431;28;20068;-87
2023/12/19 11:45:42;;;;;;;0.10;0.10;;;;;;;;;;6242656;28;20029;-87
2023/12/19 11:48:46;;;;;;;0.10;0.10;;;;;;;;;;6225533;28;20059;-88
2023/12/19 11:51:50;;;;;;;0.13;0.13;;;;;;;;;;6241327;28;20052;-89
2023/12/19 11:54:50;;;;;;;0.10;0.10;;;;;;;;;;6235911;28;20030;-90
2023/12/19 11:57:50;;;;;;;0.10;0.10;;;;;;;;;;6243481;28;20021;-90
2023/12/19 12:00:58;;;;;;;0.17;0.17;;;;;;;;;;6243356;28;20037;-90
2023/12/19 12:04:05;;;;;;;0.10;0.10;;;;;;;;;;6243371;28;20029;-89
2023/12/19 12:07:05;;;;;;;0.10;0.10;;;;;;;;;;6241840;28;20056;-90
2023/12/19 12:10:06;;;;;;;0.10;0.10;;;;;;;;;;6242871;28;20057;-89
2023/12/19 12:13:06;;;;;;;0.10;0.10;;;;;;;;;;6233280;28;20464;-89
2023/12/19 12:16:07;;;;;;;0.10;0.10;;;;;;;;;;6240575;28;20021;-90
2023/12/19 12:19:10;;;;;;;0.10;0.10;;;;;;;;;;6252033;28;20026;-90
2023/12/19 12:22:12;;;;;;;0.10;0.10;;;;;;;;;;6240776;28;20036;-89
2023/12/19 12:25:12;;;;;;;;;;;;;;;;;;6235211;28;20044;-89
2023/12/19 12:28:17;;;;;;;0.10;0.10;;;;;;;;;;6239816;28;19913;-89
2023/12/19 12:31:17;;;;;;;0.10;0.10;;;;;;;;;;6227917;28;20025;-89
2023/12/19 12:34:17;;;;;;;0.10;0.10;;;;;;;;;;6241992;28;20021;-89
2023/12/19 12:37:18;;;;;;;0.10;0.10;;;;;;;;;;6241510;28;20025;-90
2023/12/19 12:40:18;;;;;;;0.10;0.10;;;;;;;;;;6241663;28;20025;-89
2023/12/19 12:43:33;;;;;;;0.10;0.10;;;;;;;;;;6241849;28;20023;-89
2023/12/19 12:46:42;;;;;;;0.10;0.10;;;;;;;;;;6236646;28;20022;-90
2023/12/19 12:49:42;;;;;;;0.10;0.10;;;;;;;;;;6240756;28;20025;-90
2023/12/19 12:52:42;;;;;;;0.10;0.10;;;;;;;;;;6242773;28;20022;-88
2023/12/19 12:55:43;;;;;;;0.10;0.10;;;;;;;;;;6242671;28;20025;-88
2023/12/19 12:58:43;;;;;;;0.10;0.10;;;;;;;;;;6240987;28;20036;-88
2023/12/19 13:01:47;;;;;;;0.10;0.10;;;;;;;;;;6240762;28;20067;-88
2023/12/19 13:04:47;;;;;;;0.10;0.10;;;;;;;;;;6231987;28;20476;-88
2023/12/19 13:07:47;;;;;;;0.10;0.10;;;;;;;;;;6241894;28;20045;-88
2023/12/19 13:10:48;;;;;;;0.10;0.10;;;;;;;;;;6243822;28;20129;-87
2023/12/19 13:13:48;;;;;;;0.10;0.10;;;;;;;;;;6254739;28;20021;-87
2023/12/19 13:16:49;;;;;;;0.10;0.10;;;;;;;;;;6241445;28;20033;-87
2023/12/19 13:19:49;;;;;;;0.10;0.10;;;;;;;;;;6241634;28;20028;-87
2023/12/19 13:22:49;;;;;;;0.10;0.10;;;;;;;;;;6242686;28;20475;-87
2023/12/19 13:25:50;;;;;;;0.10;0.10;;;;;;;;;;6244740;28;20167;-87
2023/12/19 13:28:51;;;;;;;0.10;0.10;;;;;;;;;;6247409;28;20049;-88
2023/12/19 13:31:51;;;;;;;0.10;0.10;;;;;;;;;;6246594;28;20116;-88
2023/12/19 13:34:52;;;;;;;0.10;0.10;;;;;;;;;;6245018;28;20395;-88
2023/12/19 13:37:53;;;;;;;0.10;0.10;;;;;;;;;;6246348;28;20035;-88
2023/12/19 13:40:53;;;;;;;0.10;0.10;;;;;;;;;;6243211;28;20066;-88
2023/12/19 13:43:55;;;;;;;0.10;0.10;;;;;;;;;;6246237;28;20032;-87
2023/12/19 13:46:55;;;;;;;0.10;0.10;;;;;;;;;;6245578;28;20029;-88
2023/12/19 13:49:55;;;;;;;0.10;0.10;;;;;;;;;;6246430;28;20021;-88
2023/12/19 13:52:56;;;;;;;0.10;0.10;;;;;;;;;;6244893;28;20025;-87
2023/12/19 13:55:56;;;;;;;0.10;0.10;;;;;;;;;;6245817;28;20025;-88
2023/12/19 13:58:56;;;;;;;0.10;0.10;;;;;;;;;;6245609;28;20033;-88
2023/12/19 14:01:56;;;;;;;0.10;0.10;;;;;;;;;;6244842;28;20029;-88
2023/12/19 14:04:57;;;;;;;0.10;0.10;;;;;;;;;;6245962;28;20096;-90
2023/12/19 14:07:59;;;;;;;0.10;0.10;;;;;;;;;;6229925;28;20479;-90
2023/12/19 14:10:59;;;;;;;0.10;0.10;;;;;;;;;;6219609;28;20072;-90
2023/12/19 14:13:59;;;;;;;0.10;0.10;;;;;;;;;;6221813;28;20026;-91
2023/12/19 14:17:00;;;;;;;0.10;0.10;;;;;;;;;;6221001;28;20484;-90
2023/12/19 14:20:02;;;;;;;0.10;0.10;;;;;;;;;;6219634;28;20109;-89
2023/12/19 14:23:03;;;;;;;0.10;0.10;;;;;;;;;;6219136;28;20037;-89
2023/12/19 14:26:04;;;;;;;0.10;0.10;;;;;;;;;;6219962;28;20029;-89
2023/12/19 14:29:05;;;;;;;;;;;;;;;;;;6221381;28;20169;-88
2023/12/19 14:32:05;;;;;;;0.10;0.10;;;;;;;;;;6221039;28;19909;-89
2023/12/19 14:35:05;;;;;;;0.17;0.17;;;;;;;;;;6222035;28;20376;-89
2023/12/19 14:38:06;;;;;;;0.17;0.17;;;;;;;;;;6217256;28;20022;-89
2023/12/19 14:41:06;;;;;;;0.10;0.10;;;;;;;;;;6217776;28;20378;-90
2023/12/19 14:44:06;;;;;;;0.10;0.10;;;;;;;;;;6219284;28;20025;-89
2023/12/19 14:47:08;;;;;;;0.20;0.20;;;;;;;;;;6220083;28;20041;-88
2023/12/19 14:50:08;;;;;;;0.15;0.15;;;;;;;;;;6212256;28;20547;-89
2023/12/19 14:53:09;;;;;;;0.10;0.10;;;;;;;;;;6215656;28;20038;-89
2023/12/19 14:56:10;;;;;;;0.10;0.10;;;;;;;;;;6210055;28;20025;-89
2023/12/19 14:59:11;;;;;;;0.10;0.10;;;;;;;;;;6220131;28;20040;-89
2023/12/19 15:02:11;;;;;;;0.20;0.20;;;;;;;;;;6218611;28;20030;-89
2023/12/19 15:05:12;;;;;;;0.10;0.10;;;;;;;;;;6212392;28;20160;-90
2023/12/19 15:08:13;;;;;;;0.17;0.17;;;;;;;;;;6213378;28;20037;-91
2023/12/19 15:11:16;;;;;;;0.10;0.10;;;;;;;;;;6245430;28;20017;-91
2023/12/19 15:14:16;;;;;;;0.13;0.13;;;;;;;;;;6242685;28;20041;-88
2023/12/19 15:17:18;;;;;;;0.20;0.20;;;;;;;;;;6244101;28;20095;-88
2023/12/19 15:20:18;;;;;;;0.10;0.10;;;;;;;;;;6244014;28;20032;-88
2023/12/19 15:23:18;;;;;;;0.20;0.20;;;;;;;;;;6244460;28;20033;-88
2023/12/19 15:26:18;;;;;;;0.20;0.20;;;;;;;;;;6241350;28;20028;-88
2023/12/19 15:29:19;;;;;;;0.20;0.20;;;;;;;;;;6242256;28;20427;-88
2023/12/19 15:32:19;;;;;;;0.20;0.20;;;;;;;;;;6243966;28;20037;-88
2023/12/19 15:35:19;;;;;;;0.10;0.10;;;;;;;;;;6245754;28;20029;-88
2023/12/19 15:38:20;;;;;;;0.20;0.20;;;;;;;;;;6243333;28;20029;-87
2023/12/19 15:41:23;;;;;;;0.10;0.10;;;;;;;;;;6239864;28;20037;-88
2023/12/19 15:44:23;;;;;;;0.20;0.20;;;;;;;;;;6239775;28;20021;-88
2023/12/19 15:47:24;;;;;;;0.20;0.20;;;;;;;;;;6241586;28;20484;-88
2023/12/19 15:50:25;;;;;;;0.10;0.10;;;;;;;;;;6242906;28;20100;-88
2023/12/19 15:53:25;;;;;;;0.10;0.10;;;;;;;;;;6243403;28;20029;-88
2023/12/19 15:56:25;;;;;;;0.10;0.10;;;;;;;;;;6240399;28;20022;-88
2023/12/19 15:59:26;;;;;;;0.10;0.10;;;;;;;;;;6243454;28;20135;-88
2023/12/19 16:02:27;;;;;;;0.10;0.10;;;;;;;;;;6245445;28;20491;-88
2023/12/19 16:05:27;;;;;;;0.17;0.17;;;;;;;;;;6241925;28;20022;-88
2023/12/19 16:08:27;;;;;;;0.10;0.10;;;;;;;;;;6240584;28;20128;-88
2023/12/19 16:11:28;;;;;;;0.20;0.20;;;;;;;;;;6240993;28;20035;-88
2023/12/19 16:14:28;;;;;;;0.20;0.20;;;;;;;;;;6242385;28;20022;-87
2023/12/19 16:17:28;;;;;;;0.10;0.10;;;;;;;;;;6242393;28;20406;-87
2023/12/19 16:20:30;;;;;;;0.10;0.10;;;;;;;;;;6242574;28;20292;-88
2023/12/19 16:23:30;;;;;;;0.10;0.10;;;;;;;;;;6240267;28;20029;-91
2023/12/19 16:26:30;;;;;;;0.10;0.10;;;;;;;;;;6240400;28;20103;-90
2023/12/19 16:29:30;;;;;;;0.10;0.10;;;;;;;;;;6241533;28;20033;-90
2023/12/19 16:32:31;;;;;;;0.20;0.20;;;;;;;;;;6257051;28;20021;-90
2023/12/19 16:35:31;;;;;;;0.10;0.10;;;;;;;;;;6241172;28;20018;-91
2023/12/19 16:38:31;;;;;;;0.10;0.10;;;;;;;;;;6241049;28;20064;-90
2023/12/19 16:41:31;;;;;;;0.20;0.20;;;;;;;;;;6241581;28;20021;-89
2023/12/19 16:44:32;;;;;;;0.10;0.10;;;;;;;;;;6255117;28;20025;-90
2023/12/19 16:47:32;;;;;;;0.20;0.20;;;;;;;;;;6239401;28;20110;-89
2023/12/19 16:50:32;;;;;;;0.10;0.10;;;;;;;;;;6238255;28;20120;-90
2023/12/19 16:53:35;;;;;;;0.20;0.20;;;;;;;;;;6239448;28;20101;-91
2023/12/19 16:56:35;;;;;;;0.10;0.10;;;;;;;;;;6236715;28;20028;-90
2023/12/19 16:59:35;;;;;;;0.20;0.20;;;;;;;;;;6238852;28;20053;-90
2023/12/19 17:02:35;;;;;;;0.10;0.10;;;;;;;;;;6247002;28;20052;-89
2023/12/19 17:05:36;;;;;;;0.10;0.10;;;;;;;;;;6244918;28;20803;-90
2023/12/19 17:08:36;;;;;;;0.10;0.10;;;;;;;;;;6245327;28;20041;-89
2023/12/19 17:11:36;;;;;;;0.10;0.10;;;;;;;;;;6242900;28;20025;-90
2023/12/19 17:14:37;;;;;;;0.10;0.10;;;;;;;;;;6246955;28;20025;-90
2023/12/19 17:17:38;;;;;;;0.10;0.10;;;;;;;;;;6242545;28;20025;-89
2023/12/19 17:20:38;;;;;;;0.10;0.10;;;;;;;;;;6245246;28;20040;-90
2023/12/19 17:23:39;;;;;;;0.10;0.10;;;;;;;;;;6247471;28;20021;-90
2023/12/19 17:26:40;;;;;;;0.10;0.10;;;;;;;;;;6246308;28;20025;-89
2023/12/19 17:29:41;;;;;;;0.10;0.10;;;;;;;;;;6241889;28;20029;-90
2023/12/19 17:32:42;;;;;;;0.10;0.10;;;;;;;;;;6245481;28;20056;-87
2023/12/19 17:35:42;;;;;;;0.20;0.20;;;;;;;;;;6245982;28;20025;-87
2023/12/19 17:38:42;;;;;;;0.20;0.20;;;;;;;;;;6246445;28;20032;-87
2023/12/19 17:41:43;;;;;;;0.10;0.10;;;;;;;;;;6246342;28;20061;-87
2023/12/19 17:44:43;;;;;;;0.20;0.20;;;;;;;;;;6259887;28;20045;-86
2023/12/19 17:47:43;;;;;;;0.20;0.20;;;;;;;;;;6244149;28;20018;-87
2023/12/19 17:50:43;;;;;;;0.10;0.10;;;;;;;;;;6246514;28;20025;-87
2023/12/19 17:53:44;;;;;;;0.10;0.10;;;;;;;;;;6245879;28;20358;-87
2023/12/19 17:56:44;;;;;;;0.10;0.10;;;;;;;;;;6243677;28;20022;-87
2023/12/19 17:59:45;;;;;;;0.10;0.10;;;;;;;;;;6243907;28;20095;-87
2023/12/19 18:02:45;;;;;;;0.20;0.20;;;;;;;;;;6245764;28;20030;-87
2023/12/19 18:05:46;;;;;;;0.10;0.10;;;;;;;;;;6244111;28;20032;-87
2023/12/19 18:08:46;;;;;;;0.17;0.17;;;;;;;;;;6244611;28;20057;-87